Time;durP1;ratioP1;P1;durP2;ratioP2;P2;SDS_P1;SDS_P2;PMS_P1;PMS_P2;Temp;Humidity;BMP_temperature;BMP_pressure;BME280_temperature;BME280_humidity;BME280_pressure;Samples;Min_cycle;Max_cycle;Signal;HPM_P1;HPM_P2
2023/08/18 07:01:22;;;;;;;19.48;4.70;;;19.90;99.90;23.80;101309.00;;;;6254140;22;1421250;-72
2023/08/18 07:03:55;;;;;;;17.13;7.22;;;20.10;99.90;22.60;101309.00;;;;6309137;22;20168;-71
2023/08/18 07:06:23;;;;;;;2.97;2.78;;;20.00;99.90;23.20;101253.00;;;;6309728;22;20137;-72
2023/08/18 07:08:49;;;;;;;4.93;4.45;;;20.00;99.90;22.60;101262.00;;;;6281863;22;20159;-72
2023/08/18 07:11:15;;;;;;;1.42;1.05;;;19.90;99.90;23.70;101304.00;;;;6309192;22;20140;-71
2023/08/18 07:13:44;;;;;;;2.67;2.50;;;20.20;99.90;24.20;101312.00;;;;6282321;22;20156;-72
2023/08/18 07:16:12;;;;;;;2.65;2.47;;;20.40;99.90;24.30;101317.00;;;;6282157;22;20186;-71
2023/08/18 07:18:38;;;;;;;0.93;0.90;;;20.50;99.90;23.60;101305.00;;;;6282123;22;20137;-71
2023/08/18 07:21:11;;;;;;;1.83;1.75;;;20.20;99.90;24.10;101282.00;;;;6256456;22;20175;-71
2023/08/18 07:23:47;;;;;;;0.20;0.20;;;20.50;99.90;24.30;101308.00;;;;6281533;22;20176;-71
2023/08/18 07:26:16;;;;;;;0.32;0.32;;;20.50;99.90;24.50;101315.00;;;;6282847;22;20147;-72
2023/08/18 07:28:52;;;;;;;4.07;3.25;;;20.70;99.90;24.30;101309.00;;;;6282258;22;20170;-71
2023/08/18 07:31:18;;;;;;;17.52;9.40;;;20.70;99.90;23.00;101320.00;;;;6308803;22;20152;-71
2023/08/18 07:33:44;;;;;;;0.20;0.20;;;20.50;99.90;23.60;101310.00;;;;6282273;22;20155;-72
2023/08/18 07:36:10;;;;;;;0.73;0.73;;;20.30;99.90;24.40;101314.00;;;;6281662;22;20140;-71
2023/08/18 07:38:38;;;;;;;1.27;1.27;;;20.60;99.90;24.80;101308.00;;;;6309074;22;20622;-72
2023/08/18 07:41:19;;;;;;;0.20;0.20;;;20.80;99.90;25.10;101336.00;;;;6281987;22;20155;-71
2023/08/18 07:43:45;;;;;;;5.28;2.80;;;21.10;99.90;24.00;101275.00;;;;6309380;22;20179;-71
2023/08/18 07:46:20;;;;;;;1.20;1.20;;;20.90;99.90;24.60;101320.00;;;;6309131;22;20144;-71
2023/08/18 07:48:49;;;;;;;8.85;1.85;;;20.90;99.90;25.40;101333.00;;;;6281722;22;20144;-71
2023/08/18 07:51:15;;;;;;;1.95;1.85;;;21.10;99.90;25.40;101293.00;;;;6282380;22;20144;-71
2023/08/18 07:53:44;;;;;;;2.72;1.65;;;21.20;99.90;24.20;101330.00;;;;6281421;22;20567;-71
2023/08/18 07:56:10;;;;;;;1.98;1.80;;;21.20;99.90;24.30;101330.00;;;;6308812;22;20503;-71
2023/08/18 07:58:36;;;;;;;2.17;2.08;;;21.00;99.90;23.60;101335.00;;;;6281760;22;20176;-71
2023/08/18 08:01:02;;;;;;;1.60;1.60;;;20.90;99.90;24.60;101337.00;;;;6308265;22;20801;-72
2023/08/18 08:03:32;;;;;;;3.67;1.75;;;21.00;99.90;24.40;101325.00;;;;6281643;22;20593;-72
2023/08/18 08:06:05;;;;;;;2.22;2.08;;;21.00;99.90;24.80;101342.00;;;;6281545;22;20143;-72
2023/08/18 08:08:33;;;;;;;0.85;0.85;;;21.10;99.90;24.20;101332.00;;;;6281247;22;20232;-71
2023/08/18 08:10:59;;;;;;;5.63;2.67;;;21.00;99.90;24.20;101334.00;;;;6280891;22;20152;-70
2023/08/18 08:13:45;;;;;;;2.03;1.75;;;20.90;99.90;24.70;101304.00;;;;6281582;22;20173;-71
2023/08/18 08:16:11;;;;;;;6.10;4.18;;;21.10;99.90;24.00;101326.00;;;;6281286;22;20147;-71
2023/08/18 08:18:40;;;;;;;6.32;4.97;;;21.00;99.90;24.20;101335.00;;;;6308390;22;20481;-70
2023/08/18 08:21:06;;;;;;;0.52;0.52;;;20.90;99.90;24.70;101346.00;;;;6281225;22;20227;-71
2023/08/18 08:23:32;;;;;;;8.95;4.65;;;21.10;99.90;24.90;101352.00;;;;6308725;22;20251;-72
2023/08/18 08:26:05;;;;;;;0.85;0.85;;;21.30;99.90;24.30;101330.00;;;;6280855;22;20175;-71
2023/08/18 08:28:36;;;;;;;4.57;3.45;;;21.10;99.90;25.00;101337.00;;;;6281289;22;20207;-71
2023/08/18 08:31:04;;;;;;;1.58;1.48;;;21.20;99.90;24.90;101314.00;;;;6308255;22;20180;-71
2023/08/18 08:33:31;;;;;;;0.85;0.85;;;21.40;99.90;25.80;101362.00;;;;6281413;22;20184;-71
2023/08/18 08:35:58;;;;;;;2.28;0.85;;;21.60;99.90;24.90;101350.00;;;;6308383;22;20147;-71
2023/08/18 08:38:24;;;;;;;1.67;1.23;;;21.50;99.90;25.20;101355.00;;;;6281154;22;20149;-71
2023/08/18 08:40:54;;;;;;;1.67;1.58;;;21.50;99.90;25.50;101347.00;;;;6308203;22;20144;-71
2023/08/18 08:43:28;;;;;;;0.20;0.20;;;21.70;99.90;26.30;101358.00;;;;6255665;22;20208;-71
2023/08/18 08:45:58;;;;;;;5.88;3.00;;;22.10;99.90;27.10;101375.00;;;;6280990;22;20152;-72
2023/08/18 08:48:44;;;;;;;1.55;1.17;;;22.60;99.90;26.50;101382.00;;;;6281122;22;20144;-72
2023/08/18 08:51:15;;;;;;;2.13;1.95;;;22.80;99.90;25.80;101367.00;;;;6281016;22;20231;-72
2023/08/18 08:53:50;;;;;;;8.68;4.35;;;22.50;99.90;25.00;101362.00;;;;6281114;22;20176;-71
2023/08/18 08:56:28;;;;;;;2.20;2.10;;;22.30;99.90;26.00;101372.00;;;;6281090;22;20143;-72
2023/08/18 08:59:06;;;;;;;7.18;3.80;;;22.20;99.90;25.70;101375.00;;;;6281923;22;20144;-72
2023/08/18 09:01:35;;;;;;;0.20;0.20;;;22.10;99.90;26.50;101377.00;;;;6281066;22;20212;-73
2023/08/18 09:04:08;;;;;;;1.70;1.60;;;22.20;99.90;25.70;101364.00;;;;6308181;22;20145;-72
2023/08/18 09:06:41;;;;;;;4.45;2.42;;;22.30;99.90;25.60;101359.00;;;;6280444;22;20637;-72
2023/08/18 09:09:14;;;;;;;8.02;6.03;;;22.20;99.90;25.70;101373.00;;;;6280873;22;20274;-73
2023/08/18 09:11:45;;;;;;;3.88;2.28;;;22.20;99.90;25.40;101374.00;;;;6280011;22;20654;-72
2023/08/18 09:14:27;;;;;;;2.47;2.28;;;22.20;99.90;25.70;101336.00;;;;6280866;22;20587;-72
2023/08/18 09:16:53;;;;;;;9.00;3.05;;;22.20;99.90;25.40;101370.00;;;;6280595;22;20553;-73
2023/08/18 09:19:21;;;;;;;6.03;5.32;;;22.10;99.90;26.00;101385.00;;;;6280452;22;20523;-72
2023/08/18 09:22:07;;;;;;;3.85;3.35;;;22.20;99.90;26.30;101380.00;;;;6280986;22;20146;-72
2023/08/18 09:24:36;;;;;;;8.95;6.03;;;22.40;99.90;25.40;101346.00;;;;6282320;22;20162;-72
2023/08/18 09:27:10;;;;;;;3.28;2.50;;;22.20;99.90;26.40;101369.00;;;;6280369;22;20150;-71
2023/08/18 09:29:39;;;;;;;3.70;2.65;;;22.20;99.90;27.20;101375.00;;;;6254483;22;20166;-72
2023/08/18 09:32:12;;;;;;;1.90;1.73;;;22.80;99.90;27.10;101369.00;;;;6280606;22;20151;-73
2023/08/18 09:34:42;;;;;;;3.53;3.13;;;23.00;99.90;26.70;101363.00;;;;6280349;22;20171;-72
2023/08/18 09:37:08;;;;;;;0.40;0.40;;;23.00;99.90;26.20;101361.00;;;;6280557;22;20507;-72
2023/08/18 09:39:37;;;;;;;0.85;0.85;;;22.60;99.90;26.20;101359.00;;;;6307607;22;20186;-73
2023/08/18 09:42:04;;;;;;;2.75;2.00;;;22.60;99.90;25.80;101347.00;;;;6280118;22;20677;-73
2023/08/18 09:44:33;;;;;;;4.45;2.95;;;22.70;99.90;25.50;101345.00;;;;6280079;22;20600;-72
2023/08/18 09:47:13;;;;;;;2.95;1.55;;;22.40;99.90;26.70;101359.00;;;;6307968;22;20164;-73
2023/08/18 09:50:01;;;;;;;3.15;1.90;;;22.70;99.90;26.60;101361.00;;;;6280292;22;20145;-72
2023/08/18 09:52:29;;;;;;;2.92;1.58;;;22.70;99.90;26.90;101361.00;;;;6280451;22;20204;-73
2023/08/18 09:55:12;;;;;;;0.68;0.68;;;22.90;99.90;26.90;101320.00;;;;6280454;22;20141;-72
2023/08/18 09:57:54;;;;;;;2.35;2.13;;;23.00;99.90;26.00;101336.00;;;;6307178;22;20133;-72
2023/08/18 10:00:22;;;;;;;4.45;1.63;;;22.70;99.90;25.40;101315.00;;;;6307349;22;20213;-73
2023/08/18 10:02:52;;;;;;;7.90;6.10;;;22.70;99.90;24.20;101296.00;;;;6279981;22;20275;-72
2023/08/18 10:05:19;;;;;;;5.47;3.42;;;22.20;99.90;25.40;101310.00;;;;6280365;22;20548;-73
2023/08/18 10:07:46;;;;;;;3.88;3.33;;;22.20;99.90;25.00;101323.00;;;;6254126;22;20153;-73
2023/08/18 10:10:14;;;;;;;9.90;3.55;;;22.20;99.90;25.70;101310.00;;;;6280351;22;20151;-73
2023/08/18 10:12:43;;;;;;;0.57;0.45;;;22.30;99.90;27.00;101323.00;;;;6280560;22;20144;-72
2023/08/18 10:15:10;;;;;;;15.98;2.67;;;22.70;99.90;26.50;101314.00;;;;6280250;22;20143;-73
2023/08/18 10:17:37;;;;;;;13.05;7.45;;;22.70;99.90;25.00;101309.00;;;;6280224;22;20599;-72
2023/08/18 10:20:11;;;;;;;0.50;0.50;;;22.70;99.90;25.00;101291.00;;;;6254711;22;20167;-73
2023/08/18 10:33:57;;;;;;;8.75;5.00;;;22.40;99.90;25.20;101266.00;;;;5069998;28;20629;-71
2023/08/18 10:36:25;;;;;;;3.42;2.63;;;22.80;99.90;26.30;101285.00;;;;5038727;28;20321;-71
2023/08/18 10:38:53;;;;;;;4.72;4.30;;;23.10;99.90;26.80;101296.00;;;;5032450;28;20192;-71
2023/08/18 10:41:28;;;;;;;3.22;3.13;;;23.30;99.90;27.70;101312.00;;;;5050528;28;20660;-71
2023/08/18 10:43:57;;;;;;;0.80;0.50;;;23.80;99.90;27.40;101318.00;;;;5050181;28;20227;-71
2023/08/18 10:46:36;;;;;;;2.90;2.70;;;23.80;99.90;26.40;101305.00;;;;5032524;28;20182;-71
2023/08/18 10:49:10;;;;;;;1.02;0.43;;;23.80;99.90;27.10;101303.00;;;;5044251;28;20515;-71
2023/08/18 10:51:39;;;;;;;2.47;1.35;;;23.50;99.90;28.20;101323.00;;;;5049016;28;20240;-71
2023/08/18 10:54:07;;;;;;;1.75;1.65;;;24.00;99.90;28.50;101314.00;;;;5038885;28;20178;-72
2023/08/18 10:56:33;;;;;;;1.77;1.08;;;24.40;99.90;28.90;101309.00;;;;5045647;28;20220;-70
2023/08/18 10:59:02;;;;;;;2.63;2.42;;;24.80;99.90;28.20;101285.00;;;;5040779;28;20182;-71
2023/08/18 11:01:31;;;;;;;4.50;3.72;;;24.90;99.90;29.30;101300.00;;;;5049450;28;20183;-71
2023/08/18 11:04:05;;;;;;;4.13;3.80;;;25.20;99.90;28.40;101288.00;;;;5048438;28;20277;-71
2023/08/18 11:06:31;;;;;;;0.82;0.68;;;25.00;99.90;29.20;101301.00;;;;5049617;28;20269;-70
2023/08/18 11:08:59;;;;;;;2.00;1.90;;;25.20;99.90;29.20;101307.00;;;;5049416;28;20202;-70
2023/08/18 11:11:28;;;;;;;0.10;0.10;;;25.30;99.90;28.50;101302.00;;;;5031999;28;20202;-72
2023/08/18 11:14:12;;;;;;;1.38;0.68;;;25.00;99.90;27.40;101278.00;;;;5048159;28;20575;-71
2023/08/18 11:16:38;;;;;;;1.23;1.17;;;24.40;99.90;29.20;101295.00;;;;5031470;28;20682;-71
2023/08/18 11:19:13;;;;;;;0.20;0.20;;;24.90;99.90;29.30;101294.00;;;;5049636;28;20534;-71
2023/08/18 11:21:39;;;;;;;6.30;3.92;;;25.50;99.90;29.90;101298.00;;;;5048639;28;20221;-71
2023/08/18 11:24:08;;;;;;;8.63;1.85;;;26.00;99.90;30.00;101314.00;;;;5048193;28;20178;-70
2023/08/18 11:26:39;;;;;;;2.30;1.63;;;26.50;99.90;30.30;101288.00;;;;5048326;28;20178;-71
2023/08/18 11:29:14;;;;;;;1.55;0.98;;;26.60;99.90;31.40;101338.00;;;;5048329;28;20178;-71
2023/08/18 11:31:49;;;;;;;0.52;0.52;;;27.40;99.90;32.60;101371.00;;;;5047691;28;20260;-71
2023/08/18 11:34:16;;;;;;;2.80;1.90;;;28.00;99.90;33.50;101383.00;;;;5048492;28;20182;-71
2023/08/18 11:36:46;;;;;;;7.07;1.75;;;28.40;99.90;30.50;101366.00;;;;5047801;28;20178;-71
2023/08/18 11:39:21;;;;;;;0.68;0.68;;;27.70;99.90;32.90;101364.00;;;;5048236;28;20186;-71
2023/08/18 11:42:03;;;;;;;0.10;0.10;;;27.90;99.90;31.60;101341.00;;;;5049049;28;20193;-71
2023/08/18 11:44:33;;;;;;;0.22;0.22;;;27.60;99.90;32.60;101342.00;;;;5037410;28;20187;-71
2023/08/18 11:47:03;;;;;;;1.35;1.25;;;27.90;99.90;33.00;101369.00;;;;5034367;28;20190;-72
2023/08/18 11:49:38;;;;;;;1.75;1.25;;;28.40;99.90;31.40;101330.00;;;;5034648;28;20713;-71
2023/08/18 11:52:05;;;;;;;0.93;0.93;;;27.90;99.90;31.40;101316.00;;;;5035727;28;20230;-71
2023/08/18 11:54:38;;;;;;;5.57;1.30;;;27.50;99.90;29.80;101280.00;;;;5034364;28;20179;-71
2023/08/18 11:57:16;;;;;;;0.60;0.60;;;26.80;99.90;29.00;101257.00;;;;5033985;28;20183;-70
2023/08/18 11:59:48;;;;;;;3.03;2.70;;;25.90;99.90;26.20;101204.00;;;;5017916;28;20194;-70
2023/08/18 12:02:35;;;;;;;4.32;2.42;;;24.80;99.90;27.90;101272.00;;;;5033976;28;20199;-70
2023/08/18 12:05:26;;;;;;;0.17;0.17;;;24.70;99.90;29.80;101288.00;;;;5034191;28;20214;-71
2023/08/18 12:07:53;;;;;;;3.90;3.60;;;25.20;99.90;28.50;101275.00;;;;5027541;28;20224;-70
2023/08/18 12:10:22;;;;;;;0.40;0.40;;;25.10;99.90;29.50;101252.00;;;;5031057;28;20192;-71
2023/08/18 12:13:06;;;;;;;1.40;1.35;;;25.40;99.90;29.30;101283.00;;;;5030323;28;20199;-71
2023/08/18 12:15:35;;;;;;;0.10;0.10;;;25.70;99.90;30.30;101248.00;;;;5030053;28;20175;-70
2023/08/18 12:18:21;;;;;;;3.97;2.42;;;26.00;99.90;30.20;101272.00;;;;5033686;28;20187;-71
2023/08/18 12:20:50;;;;;;;0.65;0.65;;;26.50;99.90;30.30;101274.00;;;;5034052;28;20274;-71
2023/08/18 12:23:19;;;;;;;1.63;1.27;;;26.40;99.90;31.00;101282.00;;;;5033965;28;20187;-71
2023/08/18 12:26:08;;;;;;;0.47;0.47;;;26.80;99.90;31.30;101266.00;;;;5033716;28;20201;-71
2023/08/18 12:28:34;;;;;;;6.50;4.88;;;26.90;99.90;28.80;101239.00;;;;5017816;28;20179;-71
2023/08/18 12:31:03;;;;;;;8.90;3.20;;;26.80;99.90;29.10;101237.00;;;;5034568;28;20273;-71
2023/08/18 12:33:44;;;;;;;10.88;5.47;;;25.90;99.90;29.20;101254.00;;;;5035261;28;20205;-71
2023/08/18 12:36:19;;;;;;;0.90;0.90;;;26.20;99.90;30.30;101262.00;;;;5032219;28;20183;-70
2023/08/18 12:38:50;;;;;;;1.58;1.48;;;26.10;99.90;29.80;101253.00;;;;5060572;28;20183;-71
2023/08/18 12:41:20;;;;;;;1.70;1.65;;;26.10;99.90;29.20;101263.00;;;;5033529;28;20184;-71
2023/08/18 12:43:48;;;;;;;1.60;1.02;;;26.00;99.90;30.80;101274.00;;;;5015302;28;20184;-71
2023/08/18 12:46:14;;;;;;;4.45;2.85;;;26.50;99.90;31.30;101264.00;;;;5017237;28;20274;-71
2023/08/18 12:48:55;;;;;;;0.88;0.88;;;27.00;99.90;30.80;101249.00;;;;5034722;28;20328;-70
2023/08/18 12:51:20;;;;;;;4.35;2.85;;;26.70;99.90;30.00;101257.00;;;;5033039;28;20302;-71
2023/08/18 12:54:07;;;;;;;0.52;0.47;;;26.70;99.90;30.20;101249.00;;;;5033210;28;20274;-71
2023/08/18 12:56:44;;;;;;;3.47;2.15;;;26.40;99.90;30.20;101219.00;;;;5031657;28;20649;-71
2023/08/18 12:59:10;;;;;;;0.93;0.93;;;26.30;99.90;31.30;101222.00;;;;5033067;28;20209;-71
2023/08/18 13:01:41;;;;;;;5.30;1.63;;;26.50;99.90;31.20;101276.00;;;;5034548;28;20203;-71
2023/08/18 13:04:19;;;;;;;0.10;0.10;;;27.00;99.90;31.50;101274.00;;;;5016311;28;20183;-71
2023/08/18 13:06:55;;;;;;;2.70;2.53;;;27.20;99.90;29.40;101242.00;;;;5033031;28;20209;-71
2023/08/18 13:09:46;;;;;;;0.20;0.20;;;26.80;99.90;31.20;101259.00;;;;5033442;28;20178;-71
2023/08/18 13:12:35;;;;;;;0.10;0.10;;;26.80;99.90;31.50;101272.00;;;;5032610;28;20195;-71
2023/08/18 13:15:00;;;;;;;2.95;2.72;;;27.10;99.90;30.60;101257.00;;;;5015658;28;20194;-71
2023/08/18 13:17:44;;;;;;;2.63;1.27;;;27.10;99.90;30.80;101247.00;;;;5033963;28;20187;-72
2023/08/18 13:20:10;;;;;;;1.27;0.65;;;27.00;99.90;31.70;101240.00;;;;5033924;28;20313;-72
2023/08/18 13:22:45;;;;;;;6.38;3.40;;;27.40;99.90;31.00;101237.00;;;;5032780;28;20190;-71
2023/08/18 13:25:14;;;;;;;0.57;0.57;;;27.10;99.90;31.10;101247.00;;;;5032533;28;20182;-71
2023/08/18 13:27:45;;;;;;;2.45;2.35;;;27.20;99.90;30.70;101244.00;;;;5028658;28;20175;-71
2023/08/18 13:30:17;;;;;;;1.45;1.45;;;27.00;99.90;30.60;101214.00;;;;5027185;28;20187;-71
2023/08/18 13:33:09;;;;;;;2.65;2.55;;;27.00;99.90;31.70;101250.00;;;;5032450;28;20249;-71
2023/08/18 13:35:55;;;;;;;0.10;0.10;;;27.10;99.90;31.00;101257.00;;;;5032713;28;20191;-71
2023/08/18 13:38:23;;;;;;;4.95;2.95;;;27.10;99.90;29.10;101217.00;;;;5032124;28;20195;-70
2023/08/18 13:40:54;;;;;;;0.95;0.95;;;26.30;99.90;30.60;101231.00;;;;5033664;28;20175;-71
2023/08/18 13:43:25;;;;;;;1.20;1.10;;;26.20;99.90;31.60;101245.00;;;;5032170;28;20194;-71
2023/08/18 13:46:08;;;;;;;1.80;1.70;;;26.80;99.90;31.80;101250.00;;;;5032345;28;20514;-71
2023/08/18 13:48:34;;;;;;;5.05;3.60;;;27.20;99.90;31.00;101231.00;;;;5015540;28;20248;-72
2023/08/18 13:51:10;;;;;;;2.38;1.85;;;27.20;99.90;31.50;101236.00;;;;5032117;28;20532;-70
2023/08/18 13:53:45;;;;;;;1.60;1.23;;;27.30;99.90;31.90;101241.00;;;;5032527;28;20213;-72
2023/08/18 13:56:11;;;;;;;0.63;0.35;;;27.40;99.90;31.50;101238.00;;;;5012285;28;20256;-72
2023/08/18 13:58:40;;;;;;;4.63;4.28;;;27.60;99.90;30.40;101222.00;;;;5056706;28;20768;-71
2023/08/18 14:01:14;;;;;;;8.40;2.70;;;27.40;99.90;31.10;101199.00;;;;5031816;28;20547;-72
2023/08/18 14:03:40;;;;;;;0.50;0.50;;;27.20;99.90;31.20;101183.00;;;;5031979;28;20175;-72
2023/08/18 14:06:30;;;;;;;4.53;3.45;;;27.10;99.90;31.30;101210.00;;;;5015381;28;20206;-71
2023/08/18 14:09:00;;;;;;;3.45;1.60;;;27.40;99.90;32.10;101177.00;;;;5031459;28;20607;-72
2023/08/18 14:11:54;;;;;;;1.67;1.33;;;27.70;99.90;31.50;101214.00;;;;5043486;28;20673;-72
2023/08/18 14:15:15;;;;;;;0.32;0.32;;;27.70;99.90;31.30;101204.00;;;;5029774;28;20178;-71
2023/08/18 14:18:03;;;;;;;1.05;1.05;;;27.30;99.90;31.80;101222.00;;;;5030931;28;20187;-72
2023/08/18 14:20:29;;;;;;;5.68;2.42;;;27.70;99.90;31.90;101228.00;;;;5032005;28;20240;-71
2023/08/18 14:23:00;;;;;;;0.15;0.15;;;27.80;99.90;31.80;101185.00;;;;5033050;28;20190;-71
2023/08/18 14:25:26;;;;;;;1.48;1.38;;;27.70;99.90;31.70;101216.00;;;;5016154;28;20192;-72
2023/08/18 14:27:55;;;;;;;1.35;1.15;;;27.70;99.90;32.40;101221.00;;;;5015614;28;20664;-70
2023/08/18 14:30:21;;;;;;;1.20;1.10;;;28.00;99.90;32.50;101230.00;;;;5031865;28;20181;-71
2023/08/18 14:33:08;;;;;;;0.57;0.57;;;28.00;99.90;32.80;101233.00;;;;5031411;28;20306;-72
2023/08/18 14:35:34;;;;;;;3.10;2.85;;;28.20;99.90;32.30;101222.00;;;;5064639;28;20264;-71
2023/08/18 14:38:09;;;;;;;0.90;0.90;;;28.30;99.90;31.80;101197.00;;;;5032394;28;20269;-72
2023/08/18 14:40:39;;;;;;;0.60;0.60;;;28.10;99.90;32.60;101193.00;;;;5031377;28;20193;-72
2023/08/18 14:43:14;;;;;;;4.20;3.70;;;28.10;99.90;31.30;101210.00;;;;5015497;28;20190;-72
2023/08/18 14:46:01;;;;;;;1.77;1.55;;;27.90;99.90;31.60;101183.00;;;;5032700;28;20261;-71
2023/08/18 14:48:29;;;;;;;3.95;1.27;;;27.70;99.90;31.70;101182.00;;;;5064290;28;20257;-71
2023/08/18 14:51:15;;;;;;;1.88;1.77;;;27.70;99.90;32.20;101160.00;;;;5032803;28;20218;-71
2023/08/18 14:53:47;;;;;;;2.70;2.50;;;27.90;99.90;32.30;101206.00;;;;5048228;28;20245;-72
2023/08/18 14:56:18;;;;;;;2.83;1.58;;;27.90;99.90;31.50;101189.00;;;;5031532;28;20194;-72
2023/08/18 14:58:44;;;;;;;2.60;2.33;;;27.70;99.90;31.50;101175.00;;;;5024563;28;20186;-71
2023/08/18 15:01:23;;;;;;;2.28;1.73;;;27.70;99.90;30.40;101146.00;;;;5031420;28;20183;-71
2023/08/18 15:03:51;;;;;;;1.20;1.20;;;27.40;99.90;30.00;101152.00;;;;5031573;28;20189;-72
2023/08/18 15:06:40;;;;;;;1.73;1.60;;;26.80;99.90;30.60;101117.00;;;;5033863;28;20428;-71
2023/08/18 15:09:10;;;;;;;5.40;2.85;;;26.90;99.90;30.90;101140.00;;;;5013778;28;20175;-70
2023/08/18 15:11:37;;;;;;;0.28;0.28;;;27.00;99.90;30.50;101139.00;;;;5031678;28;20289;-71
2023/08/18 15:14:09;;;;;;;5.70;3.45;;;26.80;99.90;30.50;101134.00;;;;5028685;28;20635;-71
2023/08/18 15:16:42;;;;;;;1.05;1.05;;;26.90;99.90;30.10;101125.00;;;;5031294;28;20590;-71
2023/08/18 15:19:31;;;;;;;5.18;1.27;;;26.90;99.90;31.20;101129.00;;;;5033124;28;20197;-71
2023/08/18 15:21:58;;;;;;;3.30;2.15;;;27.00;99.90;30.60;101120.00;;;;5034547;28;20194;-72
2023/08/18 15:24:26;;;;;;;5.00;3.13;;;26.90;99.90;28.90;101095.00;;;;5036295;28;20187;-72
2023/08/18 15:27:01;;;;;;;3.35;1.38;;;26.50;99.90;30.40;101084.00;;;;5036324;28;20179;-70
2023/08/18 15:29:35;;;;;;;5.18;3.53;;;26.70;99.90;30.40;101101.00;;;;5035944;28;20183;-72
2023/08/18 15:32:19;;;;;;;5.60;3.50;;;26.80;99.90;30.00;101066.00;;;;5018097;28;20226;-71
2023/08/18 15:35:10;;;;;;;1.27;0.85;;;26.90;99.90;30.40;101113.00;;;;5034866;28;20183;-71
2023/08/18 15:37:36;;;;;;;1.13;1.02;;;26.90;99.90;30.60;101108.00;;;;5010856;28;20191;-71
2023/08/18 15:40:11;;;;;;;1.73;1.63;;;26.90;99.90;30.70;101108.00;;;;5034412;28;20224;-71
2023/08/18 15:42:38;;;;;;;0.70;0.70;;;27.00;99.90;31.00;101116.00;;;;5035640;28;20182;-71
2023/08/18 15:45:13;;;;;;;2.92;1.27;;;27.10;99.90;31.80;101117.00;;;;5035682;28;20661;-72
2023/08/18 15:47:39;;;;;;;1.05;1.05;;;27.40;99.90;31.60;101114.00;;;;5034563;28;20201;-72
2023/08/18 15:50:11;;;;;;;0.10;0.10;;;27.60;99.90;32.00;101134.00;;;;5032408;28;20187;-71
2023/08/18 15:52:48;;;;;;;5.65;3.13;;;27.90;99.90;31.80;101124.00;;;;5034681;28;20566;-72
2023/08/18 15:55:15;;;;;;;0.57;0.45;;;28.00;99.90;32.60;101120.00;;;;5025270;28;20220;-72
2023/08/18 15:57:49;;;;;;;1.20;1.20;;;28.10;99.90;32.10;101128.00;;;;5034455;28;20241;-72
2023/08/18 16:00:31;;;;;;;2.65;2.55;;;28.30;99.90;32.80;101142.00;;;;5034222;28;20279;-68
2023/08/18 16:03:05;;;;;;;2.55;2.08;;;28.30;99.90;32.40;101133.00;;;;5035528;28;20653;-71
2023/08/18 16:05:32;;;;;;;17.63;4.03;;;28.50;99.90;31.80;101115.00;;;;5033938;28;20671;-71
2023/08/18 16:08:00;;;;;;;3.90;1.45;;;28.10;99.90;31.20;101116.00;;;;5017936;28;20660;-71
2023/08/18 16:11:05;;;;;;;2.17;1.95;;;28.00;99.90;31.80;101119.00;;;;5034215;28;20186;-71
2023/08/18 16:13:56;;;;;;;4.07;3.53;;;27.90;99.90;32.30;101131.00;;;;5033716;28;20216;-72
2023/08/18 16:16:31;;;;;;;12.13;2.70;;;28.00;99.90;31.80;101118.00;;;;5033903;28;20190;-71
2023/08/18 16:18:57;;;;;;;1.75;1.65;;;27.90;99.90;32.30;101117.00;;;;5033883;28;20179;-71
2023/08/18 16:21:32;;;;;;;2.42;1.60;;;28.00;99.90;32.40;101126.00;;;;5032572;28;20184;-71
2023/08/18 16:24:32;;;;;;;7.20;2.20;;;28.10;99.90;32.50;101118.00;;;;5026136;28;20440;-72
2023/08/18 16:27:08;;;;;;;1.35;1.35;;;28.20;99.90;32.50;101109.00;;;;5034486;28;20192;-72
2023/08/18 16:29:34;;;;;;;4.75;2.63;;;28.20;99.90;31.50;101073.00;;;;5061401;28;20667;-71
2023/08/18 16:32:05;;;;;;;0.52;0.52;;;28.00;99.90;32.00;101103.00;;;;5016781;28;20696;-71
2023/08/18 16:34:34;;;;;;;0.85;0.85;;;27.80;99.90;32.20;101085.00;;;;5033493;28;20207;-71
2023/08/18 16:37:02;;;;;;;8.07;4.97;;;28.00;99.90;31.50;101122.00;;;;5017369;28;20199;-71
2023/08/18 16:39:35;;;;;;;1.63;0.63;;;27.90;99.90;31.80;101106.00;;;;5030746;28;20214;-71
2023/08/18 16:42:22;;;;;;;5.55;3.65;;;27.80;99.90;32.00;101108.00;;;;5033582;28;20270;-71
2023/08/18 16:44:56;;;;;;;1.17;1.05;;;27.90;99.90;32.10;101085.00;;;;5029946;28;20187;-71
2023/08/18 16:47:33;;;;;;;7.00;3.72;;;28.00;99.90;31.50;101065.00;;;;5033390;28;20273;-71
2023/08/18 16:49:59;;;;;;;4.78;2.88;;;27.90;99.90;32.00;101078.00;;;;5034140;28;20198;-72
2023/08/18 16:52:38;;;;;;;0.90;0.90;;;27.90;99.90;32.00;101082.00;;;;5033396;28;20657;-72
2023/08/18 16:55:22;;;;;;;0.20;0.20;;;27.90;99.90;32.80;101084.00;;;;5033460;28;20183;-72
2023/08/18 16:58:07;;;;;;;0.65;0.65;;;28.10;99.90;31.20;101067.00;;;;5024799;28;20190;-73
2023/08/18 17:00:36;;;;;;;0.82;0.63;;;27.80;99.90;31.70;101048.00;;;;5013392;28;20198;-72
2023/08/18 17:03:11;;;;;;;1.38;1.33;;;27.70;99.90;32.10;101076.00;;;;5064882;28;20642;-72
2023/08/18 17:05:37;;;;;;;7.25;4.35;;;27.90;99.90;31.70;101047.00;;;;5029343;28;20174;-72
2023/08/18 17:08:08;;;;;;;3.55;3.15;;;27.80;99.90;31.40;101063.00;;;;5032709;28;20236;-72
2023/08/18 17:10:41;;;;;;;2.05;1.95;;;27.70;99.90;31.20;101067.00;;;;5033066;28;20205;-72
2023/08/18 17:13:10;;;;;;;4.10;3.75;;;27.50;99.90;31.80;101058.00;;;;5032755;28;20202;-72
2023/08/18 17:15:45;;;;;;;0.43;0.40;;;27.70;99.90;32.20;101056.00;;;;5033614;28;20655;-72
2023/08/18 17:18:23;;;;;;;4.55;4.05;;;27.80;99.90;32.10;101061.00;;;;5032616;28;20178;-72
2023/08/18 17:20:58;;;;;;;1.33;1.33;;;27.70;99.90;31.80;101051.00;;;;5032954;28;20190;-72
2023/08/18 17:23:27;;;;;;;2.75;1.13;;;27.70;99.90;32.00;101032.00;;;;5033033;28;20216;-72
2023/08/18 17:26:02;;;;;;;0.20;0.20;;;27.70;99.90;32.80;101076.00;;;;5016112;28;20190;-72
2023/08/18 17:28:45;;;;;;;0.70;0.70;;;28.00;99.90;32.60;101075.00;;;;5033756;28;20182;-72
2023/08/18 17:31:14;;;;;;;0.40;0.40;;;28.10;99.90;32.00;101050.00;;;;5026994;28;20265;-72
2023/08/18 17:33:50;;;;;;;1.13;1.00;;;28.10;99.90;31.80;101058.00;;;;5027078;28;20280;-72
2023/08/18 17:36:19;;;;;;;0.20;0.20;;;27.90;99.90;31.50;101048.00;;;;5033701;28;20224;-72
2023/08/18 17:38:45;;;;;;;4.07;3.53;;;27.50;99.90;31.90;101062.00;;;;5013147;28;20209;-72
2023/08/18 17:41:13;;;;;;;2.10;2.00;;;27.60;99.90;31.80;101057.00;;;;5033757;28;20625;-72
2023/08/18 17:43:39;;;;;;;0.35;0.35;;;27.60;99.90;32.10;101056.00;;;;5013082;28;20279;-72
2023/08/18 17:46:16;;;;;;;1.13;1.02;;;27.70;99.90;32.50;101035.00;;;;5027643;28;20744;-73
2023/08/18 17:48:44;;;;;;;0.80;0.80;;;27.90;99.90;32.30;101059.00;;;;5032571;28;20186;-72
2023/08/18 17:51:37;;;;;;;0.20;0.20;;;28.10;99.90;31.50;101037.00;;;;5032271;28;20222;-72
2023/08/18 17:54:04;;;;;;;1.00;1.00;;;27.70;99.90;31.80;101004.00;;;;5045694;28;20202;-72
2023/08/18 17:56:54;;;;;;;1.83;1.73;;;27.70;99.90;32.20;101044.00;;;;5032450;28;20266;-72
2023/08/18 17:59:21;;;;;;;2.05;1.75;;;27.80;99.90;32.40;101044.00;;;;5026952;28;20596;-72
2023/08/18 18:01:51;;;;;;;6.88;3.90;;;27.90;99.90;31.40;101005.00;;;;5015231;28;20221;-72
2023/08/18 18:04:24;;;;;;;0.95;0.95;;;27.70;99.90;31.40;101038.00;;;;5032036;28;20186;-72
2023/08/18 18:06:50;;;;;;;10.98;7.15;;;27.60;99.90;30.20;101021.00;;;;5015602;28;20186;-72
2023/08/18 18:09:25;;;;;;;11.23;4.85;;;27.30;99.90;29.60;101021.00;;;;5022164;28;20542;-72
2023/08/18 18:12:17;;;;;;;1.40;0.73;;;27.00;99.90;31.30;101045.00;;;;5031968;28;20563;-71
2023/08/18 18:15:04;;;;;;;1.60;1.50;;;27.10;99.90;31.20;101027.00;;;;5026969;28;20261;-72
2023/08/18 18:17:35;;;;;;;2.10;2.00;;;27.20;99.90;30.70;101022.00;;;;5031657;28;20190;-72
2023/08/18 18:20:10;;;;;;;1.88;1.77;;;27.10;99.90;31.20;101028.00;;;;5031924;28;20179;-72
2023/08/18 18:22:39;;;;;;;0.10;0.10;;;27.20;99.90;31.80;101058.00;;;;5031702;28;20178;-72
2023/08/18 18:25:10;;;;;;;2.30;1.45;;;27.40;99.90;32.10;101039.00;;;;5032824;28;20187;-71